sensor_id;sensor_type;location;lat;lon;timestamp;P1;durP1;ratioP1;P2;durP2;ratioP2
11303;SDS011;5707;49.588;12.148;2023-12-20T00:01:46;3.80;;;3.50;;
11303;SDS011;5707;49.588;12.148;2023-12-20T00:04:12;4.30;;;3.90;;
11303;SDS011;5707;49.588;12.148;2023-12-20T00:06:37;4.00;;;3.70;;
11303;SDS011;5707;49.588;12.148;2023-12-20T00:09:03;4.60;;;4.20;;
11303;SDS011;5707;49.588;12.148;2023-12-20T00:11:28;4.25;;;3.95;;
11303;SDS011;5707;49.588;12.148;2023-12-20T00:13:54;4.25;;;3.88;;
11303;SDS011;5707;49.588;12.148;2023-12-20T00:16:19;4.35;;;4.00;;
11303;SDS011;5707;49.588;12.148;2023-12-20T00:18:45;4.20;;;3.80;;
11303;SDS011;5707;49.588;12.148;2023-12-20T00:21:10;4.10;;;3.80;;
11303;SDS011;5707;49.588;12.148;2023-12-20T00:23:36;4.45;;;4.15;;
11303;SDS011;5707;49.588;12.148;2023-12-20T00:26:02;3.78;;;3.42;;
11303;SDS011;5707;49.588;12.148;2023-12-20T00:28:27;3.65;;;3.35;;
11303;SDS011;5707;49.588;12.148;2023-12-20T00:30:53;3.85;;;3.42;;
11303;SDS011;5707;49.588;12.148;2023-12-20T00:33:18;3.95;;;3.65;;
11303;SDS011;5707;49.588;12.148;2023-12-20T00:35:44;3.90;;;3.65;;
11303;SDS011;5707;49.588;12.148;2023-12-20T00:38:10;3.90;;;3.60;;
11303;SDS011;5707;49.588;12.148;2023-12-20T00:40:36;3.78;;;3.47;;
11303;SDS011;5707;49.588;12.148;2023-12-20T00:43:02;4.28;;;3.90;;
11303;SDS011;5707;49.588;12.148;2023-12-20T00:45:28;3.90;;;3.50;;
11303;SDS011;5707;49.588;12.148;2023-12-20T00:47:54;3.80;;;3.60;;
11303;SDS011;5707;49.588;12.148;2023-12-20T00:50:19;3.45;;;3.25;;
11303;SDS011;5707;49.588;12.148;2023-12-20T00:52:46;3.65;;;3.45;;
11303;SDS011;5707;49.588;12.148;2023-12-20T00:55:12;3.72;;;3.42;;
11303;SDS011;5707;49.588;12.148;2023-12-20T00:57:38;3.63;;;3.40;;
11303;SDS011;5707;49.588;12.148;2023-12-20T01:00:04;4.05;;;3.85;;
11303;SDS011;5707;49.588;12.148;2023-12-20T01:02:30;4.07;;;3.78;;
11303;SDS011;5707;49.588;12.148;2023-12-20T01:04:56;4.10;;;3.60;;
11303;SDS011;5707;49.588;12.148;2023-12-20T01:07:21;3.83;;;3.53;;
11303;SDS011;5707;49.588;12.148;2023-12-20T01:09:47;3.40;;;3.20;;
11303;SDS011;5707;49.588;12.148;2023-12-20T01:12:12;3.92;;;3.63;;
11303;SDS011;5707;49.588;12.148;2023-12-20T01:14:38;3.85;;;3.42;;
11303;SDS011;5707;49.588;12.148;2023-12-20T01:17:04;4.10;;;3.67;;
11303;SDS011;5707;49.588;12.148;2023-12-20T01:19:30;3.72;;;3.53;;
11303;SDS011;5707;49.588;12.148;2023-12-20T01:21:55;4.63;;;4.32;;
11303;SDS011;5707;49.588;12.148;2023-12-20T01:24:21;3.72;;;3.53;;
11303;SDS011;5707;49.588;12.148;2023-12-20T01:26:46;3.72;;;3.47;;
11303;SDS011;5707;49.588;12.148;2023-12-20T01:29:12;5.00;;;4.50;;
11303;SDS011;5707;49.588;12.148;2023-12-20T01:31:39;3.58;;;3.38;;
11303;SDS011;5707;49.588;12.148;2023-12-20T01:34:05;4.97;;;4.20;;
11303;SDS011;5707;49.588;12.148;2023-12-20T01:36:31;4.03;;;3.72;;
11303;SDS011;5707;49.588;12.148;2023-12-20T01:38:56;4.10;;;3.80;;
11303;SDS011;5707;49.588;12.148;2023-12-20T01:41:22;3.88;;;3.58;;
11303;SDS011;5707;49.588;12.148;2023-12-20T01:43:48;4.53;;;3.97;;
11303;SDS011;5707;49.588;12.148;2023-12-20T01:46:14;4.57;;;4.18;;
11303;SDS011;5707;49.588;12.148;2023-12-20T01:48:40;5.05;;;3.38;;
11303;SDS011;5707;49.588;12.148;2023-12-20T01:51:06;4.15;;;3.85;;
11303;SDS011;5707;49.588;12.148;2023-12-20T01:53:32;4.38;;;4.07;;
11303;SDS011;5707;49.588;12.148;2023-12-20T01:55:57;3.92;;;3.63;;
11303;SDS011;5707;49.588;12.148;2023-12-20T01:58:24;3.95;;;3.65;;
11303;SDS011;5707;49.588;12.148;2023-12-20T02:00:50;4.18;;;3.88;;
11303;SDS011;5707;49.588;12.148;2023-12-20T02:03:16;4.15;;;3.75;;
11303;SDS011;5707;49.588;12.148;2023-12-20T02:05:43;6.30;;;4.57;;
11303;SDS011;5707;49.588;12.148;2023-12-20T02:08:10;4.60;;;4.15;;
11303;SDS011;5707;49.588;12.148;2023-12-20T02:10:36;4.97;;;3.97;;
11303;SDS011;5707;49.588;12.148;2023-12-20T02:13:01;4.82;;;4.45;;
11303;SDS011;5707;49.588;12.148;2023-12-20T02:15:28;3.90;;;3.60;;
11303;SDS011;5707;49.588;12.148;2023-12-20T02:17:53;4.07;;;3.80;;
11303;SDS011;5707;49.588;12.148;2023-12-20T02:20:19;4.20;;;3.80;;
11303;SDS011;5707;49.588;12.148;2023-12-20T02:22:45;4.10;;;3.80;;
11303;SDS011;5707;49.588;12.148;2023-12-20T02:25:11;4.38;;;4.07;;
11303;SDS011;5707;49.588;12.148;2023-12-20T02:27:36;4.82;;;4.18;;
11303;SDS011;5707;49.588;12.148;2023-12-20T02:30:02;4.30;;;3.97;;
11303;SDS011;5707;49.588;12.148;2023-12-20T02:32:28;4.30;;;3.97;;
11303;SDS011;5707;49.588;12.148;2023-12-20T02:34:54;4.22;;;3.83;;
11303;SDS011;5707;49.588;12.148;2023-12-20T02:37:20;3.67;;;3.30;;
11303;SDS011;5707;49.588;12.148;2023-12-20T02:39:46;3.45;;;3.25;;
11303;SDS011;5707;49.588;12.148;2023-12-20T02:42:11;2.95;;;2.75;;
11303;SDS011;5707;49.588;12.148;2023-12-20T02:44:37;3.25;;;3.05;;
11303;SDS011;5707;49.588;12.148;2023-12-20T02:47:03;3.35;;;3.10;;
11303;SDS011;5707;49.588;12.148;2023-12-20T02:49:29;3.30;;;3.10;;
11303;SDS011;5707;49.588;12.148;2023-12-20T02:51:54;2.90;;;2.70;;
11303;SDS011;5707;49.588;12.148;2023-12-20T02:54:20;3.28;;;3.03;;
11303;SDS011;5707;49.588;12.148;2023-12-20T02:56:46;3.45;;;3.15;;
11303;SDS011;5707;49.588;12.148;2023-12-20T02:59:12;3.28;;;3.05;;
11303;SDS011;5707;49.588;12.148;2023-12-20T03:01:44;3.20;;;2.63;;
11303;SDS011;5707;49.588;12.148;2023-12-20T03:04:11;2.78;;;2.58;;
11303;SDS011;5707;49.588;12.148;2023-12-20T03:06:37;3.58;;;2.97;;
11303;SDS011;5707;49.588;12.148;2023-12-20T03:09:02;2.95;;;2.75;;
11303;SDS011;5707;49.588;12.148;2023-12-20T03:11:28;2.38;;;2.17;;
11303;SDS011;5707;49.588;12.148;2023-12-20T03:13:54;1.77;;;1.67;;
11303;SDS011;5707;49.588;12.148;2023-12-20T03:16:20;2.47;;;2.28;;
11303;SDS011;5707;49.588;12.148;2023-12-20T03:18:45;2.00;;;1.90;;
11303;SDS011;5707;49.588;12.148;2023-12-20T03:21:11;2.50;;;2.30;;
11303;SDS011;5707;49.588;12.148;2023-12-20T03:23:36;2.25;;;2.05;;
11303;SDS011;5707;49.588;12.148;2023-12-20T03:26:02;2.88;;;2.65;;
11303;SDS011;5707;49.588;12.148;2023-12-20T03:28:28;2.92;;;2.72;;
11303;SDS011;5707;49.588;12.148;2023-12-20T03:30:54;2.28;;;2.08;;
11303;SDS011;5707;49.588;12.148;2023-12-20T03:33:20;1.95;;;1.80;;
11303;SDS011;5707;49.588;12.148;2023-12-20T03:35:45;2.20;;;2.08;;
11303;SDS011;5707;49.588;12.148;2023-12-20T03:38:11;2.70;;;2.50;;
11303;SDS011;5707;49.588;12.148;2023-12-20T03:40:36;4.05;;;3.75;;
11303;SDS011;5707;49.588;12.148;2023-12-20T03:43:02;4.25;;;3.95;;
11303;SDS011;5707;49.588;12.148;2023-12-20T03:45:27;2.78;;;2.58;;
11303;SDS011;5707;49.588;12.148;2023-12-20T03:47:53;2.65;;;2.45;;
11303;SDS011;5707;49.588;12.148;2023-12-20T03:50:22;2.47;;;2.28;;
11303;SDS011;5707;49.588;12.148;2023-12-20T03:52:47;2.25;;;2.05;;
11303;SDS011;5707;49.588;12.148;2023-12-20T03:55:13;1.90;;;1.75;;
11303;SDS011;5707;49.588;12.148;2023-12-20T03:57:39;1.70;;;1.42;;
11303;SDS011;5707;49.588;12.148;2023-12-20T04:00:05;1.02;;;1.02;;
11303;SDS011;5707;49.588;12.148;2023-12-20T04:02:35;2.45;;;1.02;;
11303;SDS011;5707;49.588;12.148;2023-12-20T04:05:01;1.00;;;0.80;;
11303;SDS011;5707;49.588;12.148;2023-12-20T04:07:27;0.55;;;0.55;;
11303;SDS011;5707;49.588;12.148;2023-12-20T04:09:52;2.05;;;0.63;;
11303;SDS011;5707;49.588;12.148;2023-12-20T04:12:18;1.25;;;0.30;;
11303;SDS011;5707;49.588;12.148;2023-12-20T04:14:43;0.43;;;0.30;;
11303;SDS011;5707;49.588;12.148;2023-12-20T04:17:09;0.30;;;0.30;;
11303;SDS011;5707;49.588;12.148;2023-12-20T04:19:34;0.20;;;0.20;;
11303;SDS011;5707;49.588;12.148;2023-12-20T04:22:00;0.38;;;0.38;;
11303;SDS011;5707;49.588;12.148;2023-12-20T04:24:25;0.40;;;0.40;;
11303;SDS011;5707;49.588;12.148;2023-12-20T04:26:51;0.20;;;0.20;;
11303;SDS011;5707;49.588;12.148;2023-12-20T04:29:17;0.17;;;0.17;;
11303;SDS011;5707;49.588;12.148;2023-12-20T04:31:42;0.75;;;0.20;;
11303;SDS011;5707;49.588;12.148;2023-12-20T04:34:08;0.52;;;0.43;;
11303;SDS011;5707;49.588;12.148;2023-12-20T04:36:34;0.28;;;0.22;;
11303;SDS011;5707;49.588;12.148;2023-12-20T04:38:59;0.20;;;0.20;;
11303;SDS011;5707;49.588;12.148;2023-12-20T04:41:25;0.20;;;0.20;;
11303;SDS011;5707;49.588;12.148;2023-12-20T04:43:51;0.30;;;0.30;;
11303;SDS011;5707;49.588;12.148;2023-12-20T04:46:17;0.38;;;0.20;;
11303;SDS011;5707;49.588;12.148;2023-12-20T04:48:42;0.47;;;0.40;;
11303;SDS011;5707;49.588;12.148;2023-12-20T04:51:11;0.50;;;0.50;;
11303;SDS011;5707;49.588;12.148;2023-12-20T04:53:36;1.08;;;0.98;;
11303;SDS011;5707;49.588;12.148;2023-12-20T04:56:02;0.63;;;0.63;;
11303;SDS011;5707;49.588;12.148;2023-12-20T04:58:28;0.45;;;0.45;;
11303;SDS011;5707;49.588;12.148;2023-12-20T05:00:53;0.63;;;0.63;;
11303;SDS011;5707;49.588;12.148;2023-12-20T05:03:19;0.85;;;0.55;;
11303;SDS011;5707;49.588;12.148;2023-12-20T05:05:45;0.20;;;0.20;;
11303;SDS011;5707;49.588;12.148;2023-12-20T05:08:10;0.30;;;0.10;;
11303;SDS011;5707;49.588;12.148;2023-12-20T05:10:36;0.13;;;0.10;;
11303;SDS011;5707;49.588;12.148;2023-12-20T05:13:01;0.28;;;0.20;;
11303;SDS011;5707;49.588;12.148;2023-12-20T05:15:27;0.30;;;0.10;;
11303;SDS011;5707;49.588;12.148;2023-12-20T05:17:53;0.20;;;0.20;;
11303;SDS011;5707;49.588;12.148;2023-12-20T05:20:18;0.17;;;0.13;;
11303;SDS011;5707;49.588;12.148;2023-12-20T05:22:44;0.20;;;0.20;;
11303;SDS011;5707;49.588;12.148;2023-12-20T05:25:10;0.30;;;0.30;;
11303;SDS011;5707;49.588;12.148;2023-12-20T05:27:35;0.25;;;0.20;;
11303;SDS011;5707;49.588;12.148;2023-12-20T05:30:01;0.10;;;0.10;;
11303;SDS011;5707;49.588;12.148;2023-12-20T05:32:27;0.47;;;0.22;;
11303;SDS011;5707;49.588;12.148;2023-12-20T05:34:52;0.10;;;0.10;;
11303;SDS011;5707;49.588;12.148;2023-12-20T05:37:18;0.70;;;0.70;;
11303;SDS011;5707;49.588;12.148;2023-12-20T05:39:43;0.90;;;0.90;;
11303;SDS011;5707;49.588;12.148;2023-12-20T05:42:09;0.32;;;0.32;;
11303;SDS011;5707;49.588;12.148;2023-12-20T05:44:35;0.60;;;0.60;;
11303;SDS011;5707;49.588;12.148;2023-12-20T05:47:01;0.30;;;0.30;;
11303;SDS011;5707;49.588;12.148;2023-12-20T05:49:27;0.57;;;0.57;;
11303;SDS011;5707;49.588;12.148;2023-12-20T05:51:52;0.68;;;0.68;;
11303;SDS011;5707;49.588;12.148;2023-12-20T05:54:18;0.30;;;0.30;;
11303;SDS011;5707;49.588;12.148;2023-12-20T05:56:44;0.25;;;0.20;;
11303;SDS011;5707;49.588;12.148;2023-12-20T05:59:10;0.22;;;0.20;;
11303;SDS011;5707;49.588;12.148;2023-12-20T06:01:35;0.17;;;0.17;;
11303;SDS011;5707;49.588;12.148;2023-12-20T06:04:01;0.47;;;0.30;;
11303;SDS011;5707;49.588;12.148;2023-12-20T06:06:28;0.82;;;0.60;;
11303;SDS011;5707;49.588;12.148;2023-12-20T06:08:53;0.20;;;0.20;;
11303;SDS011;5707;49.588;12.148;2023-12-20T06:11:19;0.40;;;0.40;;
11303;SDS011;5707;49.588;12.148;2023-12-20T06:13:44;0.55;;;0.30;;
11303;SDS011;5707;49.588;12.148;2023-12-20T06:16:10;0.47;;;0.40;;
11303;SDS011;5707;49.588;12.148;2023-12-20T06:18:35;0.10;;;0.10;;
11303;SDS011;5707;49.588;12.148;2023-12-20T06:21:02;0.30;;;0.30;;
11303;SDS011;5707;49.588;12.148;2023-12-20T06:23:27;0.30;;;0.30;;
11303;SDS011;5707;49.588;12.148;2023-12-20T06:25:53;0.15;;;0.15;;
11303;SDS011;5707;49.588;12.148;2023-12-20T06:28:19;0.20;;;0.20;;
11303;SDS011;5707;49.588;12.148;2023-12-20T06:30:44;0.10;;;0.10;;
11303;SDS011;5707;49.588;12.148;2023-12-20T06:33:12;0.10;;;0.10;;
11303;SDS011;5707;49.588;12.148;2023-12-20T06:35:38;0.30;;;0.13;;
11303;SDS011;5707;49.588;12.148;2023-12-20T06:38:04;0.20;;;0.20;;
11303;SDS011;5707;49.588;12.148;2023-12-20T06:40:29;0.25;;;0.20;;
11303;SDS011;5707;49.588;12.148;2023-12-20T06:42:55;0.10;;;0.10;;
11303;SDS011;5707;49.588;12.148;2023-12-20T06:45:20;0.25;;;0.25;;
11303;SDS011;5707;49.588;12.148;2023-12-20T06:47:46;0.30;;;0.30;;
11303;SDS011;5707;49.588;12.148;2023-12-20T06:50:11;0.10;;;0.10;;
11303;SDS011;5707;49.588;12.148;2023-12-20T06:52:37;0.20;;;0.20;;
11303;SDS011;5707;49.588;12.148;2023-12-20T06:55:03;0.20;;;0.20;;
11303;SDS011;5707;49.588;12.148;2023-12-20T06:57:29;1.27;;;0.28;;
11303;SDS011;5707;49.588;12.148;2023-12-20T06:59:55;0.20;;;0.20;;
11303;SDS011;5707;49.588;12.148;2023-12-20T07:02:21;0.40;;;0.40;;
11303;SDS011;5707;49.588;12.148;2023-12-20T07:04:47;0.57;;;0.57;;
11303;SDS011;5707;49.588;12.148;2023-12-20T07:07:13;0.50;;;0.50;;
11303;SDS011;5707;49.588;12.148;2023-12-20T07:09:38;1.20;;;0.40;;
11303;SDS011;5707;49.588;12.148;2023-12-20T07:12:06;0.40;;;0.40;;
11303;SDS011;5707;49.588;12.148;2023-12-20T07:14:31;1.38;;;0.68;;
11303;SDS011;5707;49.588;12.148;2023-12-20T07:17:00;0.47;;;0.47;;
11303;SDS011;5707;49.588;12.148;2023-12-20T07:19:26;0.50;;;0.50;;
11303;SDS011;5707;49.588;12.148;2023-12-20T07:21:51;0.30;;;0.30;;
11303;SDS011;5707;49.588;12.148;2023-12-20T07:24:18;0.60;;;0.50;;
11303;SDS011;5707;49.588;12.148;2023-12-20T07:26:43;0.50;;;0.50;;
11303;SDS011;5707;49.588;12.148;2023-12-20T07:29:09;1.42;;;0.40;;
11303;SDS011;5707;49.588;12.148;2023-12-20T07:31:34;0.77;;;0.75;;
11303;SDS011;5707;49.588;12.148;2023-12-20T07:34:00;0.20;;;0.20;;
11303;SDS011;5707;49.588;12.148;2023-12-20T07:36:26;0.10;;;0.10;;
11303;SDS011;5707;49.588;12.148;2023-12-20T07:38:51;0.30;;;0.30;;
11303;SDS011;5707;49.588;12.148;2023-12-20T07:41:17;0.40;;;0.28;;
11303;SDS011;5707;49.588;12.148;2023-12-20T07:43:46;0.40;;;0.40;;
11303;SDS011;5707;49.588;12.148;2023-12-20T07:46:11;0.80;;;0.40;;
11303;SDS011;5707;49.588;12.148;2023-12-20T07:48:37;0.40;;;0.40;;
11303;SDS011;5707;49.588;12.148;2023-12-20T07:51:06;0.93;;;0.60;;
11303;SDS011;5707;49.588;12.148;2023-12-20T07:53:33;0.40;;;0.40;;
11303;SDS011;5707;49.588;12.148;2023-12-20T07:55:59;0.38;;;0.38;;
11303;SDS011;5707;49.588;12.148;2023-12-20T07:58:24;0.38;;;0.20;;
11303;SDS011;5707;49.588;12.148;2023-12-20T08:00:50;0.25;;;0.25;;
11303;SDS011;5707;49.588;12.148;2023-12-20T08:03:16;0.20;;;0.20;;
11303;SDS011;5707;49.588;12.148;2023-12-20T08:05:41;0.20;;;0.20;;
11303;SDS011;5707;49.588;12.148;2023-12-20T08:08:07;0.40;;;0.40;;
11303;SDS011;5707;49.588;12.148;2023-12-20T08:10:32;0.40;;;0.40;;
11303;SDS011;5707;49.588;12.148;2023-12-20T08:12:58;0.82;;;0.40;;
11303;SDS011;5707;49.588;12.148;2023-12-20T08:15:23;1.23;;;0.40;;
11303;SDS011;5707;49.588;12.148;2023-12-20T08:17:49;0.63;;;0.60;;
11303;SDS011;5707;49.588;12.148;2023-12-20T08:20:18;1.25;;;0.65;;
11303;SDS011;5707;49.588;12.148;2023-12-20T08:22:43;0.45;;;0.45;;
11303;SDS011;5707;49.588;12.148;2023-12-20T08:25:09;0.68;;;0.60;;
11303;SDS011;5707;49.588;12.148;2023-12-20T08:27:41;0.85;;;0.57;;
11303;SDS011;5707;49.588;12.148;2023-12-20T08:30:07;0.50;;;0.50;;
11303;SDS011;5707;49.588;12.148;2023-12-20T08:32:34;0.55;;;0.52;;
11303;SDS011;5707;49.588;12.148;2023-12-20T08:34:59;1.30;;;0.77;;
11303;SDS011;5707;49.588;12.148;2023-12-20T08:37:25;0.60;;;0.60;;
11303;SDS011;5707;49.588;12.148;2023-12-20T08:39:51;0.60;;;0.60;;
11303;SDS011;5707;49.588;12.148;2023-12-20T08:42:16;0.80;;;0.80;;
11303;SDS011;5707;49.588;12.148;2023-12-20T08:44:42;1.03;;;1.00;;
11303;SDS011;5707;49.588;12.148;2023-12-20T08:47:07;1.02;;;1.00;;
11303;SDS011;5707;49.588;12.148;2023-12-20T08:49:33;0.80;;;0.80;;
11303;SDS011;5707;49.588;12.148;2023-12-20T08:51:59;0.95;;;0.90;;
11303;SDS011;5707;49.588;12.148;2023-12-20T08:54:24;1.10;;;1.00;;
11303;SDS011;5707;49.588;12.148;2023-12-20T08:56:50;1.00;;;1.00;;
11303;SDS011;5707;49.588;12.148;2023-12-20T08:59:15;1.10;;;1.10;;
11303;SDS011;5707;49.588;12.148;2023-12-20T09:01:41;0.95;;;0.95;;
11303;SDS011;5707;49.588;12.148;2023-12-20T09:04:06;1.10;;;1.10;;
11303;SDS011;5707;49.588;12.148;2023-12-20T09:06:32;1.48;;;1.38;;
11303;SDS011;5707;49.588;12.148;2023-12-20T09:08:58;1.70;;;1.60;;
11303;SDS011;5707;49.588;12.148;2023-12-20T09:11:23;1.80;;;1.70;;
11303;SDS011;5707;49.588;12.148;2023-12-20T09:13:49;1.40;;;1.30;;
11303;SDS011;5707;49.588;12.148;2023-12-20T09:16:14;1.30;;;1.20;;
11303;SDS011;5707;49.588;12.148;2023-12-20T09:18:40;2.40;;;1.13;;
11303;SDS011;5707;49.588;12.148;2023-12-20T09:21:06;1.88;;;1.10;;
11303;SDS011;5707;49.588;12.148;2023-12-20T09:23:32;1.85;;;1.30;;
11303;SDS011;5707;49.588;12.148;2023-12-20T09:25:57;1.77;;;1.20;;
11303;SDS011;5707;49.588;12.148;2023-12-20T09:28:23;1.13;;;1.10;;
11303;SDS011;5707;49.588;12.148;2023-12-20T09:30:49;1.17;;;1.13;;
11303;SDS011;5707;49.588;12.148;2023-12-20T09:33:14;1.30;;;1.20;;
11303;SDS011;5707;49.588;12.148;2023-12-20T09:35:41;1.83;;;1.20;;
11303;SDS011;5707;49.588;12.148;2023-12-20T09:38:07;0.88;;;0.88;;
11303;SDS011;5707;49.588;12.148;2023-12-20T09:40:33;1.08;;;0.93;;
11303;SDS011;5707;49.588;12.148;2023-12-20T09:43:04;1.23;;;1.15;;
11303;SDS011;5707;49.588;12.148;2023-12-20T09:45:35;1.05;;;1.05;;
11303;SDS011;5707;49.588;12.148;2023-12-20T09:48:02;1.02;;;0.93;;
11303;SDS011;5707;49.588;12.148;2023-12-20T09:50:30;0.75;;;0.75;;
11303;SDS011;5707;49.588;12.148;2023-12-20T09:52:57;3.17;;;0.90;;
11303;SDS011;5707;49.588;12.148;2023-12-20T09:55:26;0.75;;;0.75;;
11303;SDS011;5707;49.588;12.148;2023-12-20T09:57:53;0.60;;;0.60;;
11303;SDS011;5707;49.588;12.148;2023-12-20T10:00:18;0.73;;;0.73;;
11303;SDS011;5707;49.588;12.148;2023-12-20T10:02:45;1.40;;;1.17;;
11303;SDS011;5707;49.588;12.148;2023-12-20T10:05:16;1.50;;;0.95;;
11303;SDS011;5707;49.588;12.148;2023-12-20T10:07:46;0.88;;;0.88;;
11303;SDS011;5707;49.588;12.148;2023-12-20T10:10:12;3.70;;;0.88;;
11303;SDS011;5707;49.588;12.148;2023-12-20T10:12:38;0.82;;;0.60;;
11303;SDS011;5707;49.588;12.148;2023-12-20T10:15:05;0.60;;;0.60;;
11303;SDS011;5707;49.588;12.148;2023-12-20T10:17:31;1.05;;;0.52;;
11303;SDS011;5707;49.588;12.148;2023-12-20T10:19:57;1.60;;;0.40;;
11303;SDS011;5707;49.588;12.148;2023-12-20T10:22:23;0.75;;;0.40;;
11303;SDS011;5707;49.588;12.148;2023-12-20T10:24:49;3.67;;;1.02;;
11303;SDS011;5707;49.588;12.148;2023-12-20T10:27:14;2.35;;;0.82;;
11303;SDS011;5707;49.588;12.148;2023-12-20T10:29:44;0.75;;;0.60;;
11303;SDS011;5707;49.588;12.148;2023-12-20T10:32:23;0.88;;;0.52;;
11303;SDS011;5707;49.588;12.148;2023-12-20T10:34:50;0.65;;;0.55;;
11303;SDS011;5707;49.588;12.148;2023-12-20T10:37:16;0.40;;;0.40;;
11303;SDS011;5707;49.588;12.148;2023-12-20T10:39:47;0.60;;;0.60;;
11303;SDS011;5707;49.588;12.148;2023-12-20T10:42:16;0.73;;;0.73;;
11303;SDS011;5707;49.588;12.148;2023-12-20T10:44:45;1.30;;;0.90;;
11303;SDS011;5707;49.588;12.148;2023-12-20T10:47:11;2.17;;;0.60;;
11303;SDS011;5707;49.588;12.148;2023-12-20T10:49:38;0.50;;;0.50;;
11303;SDS011;5707;49.588;12.148;2023-12-20T10:52:05;0.73;;;0.50;;
11303;SDS011;5707;49.588;12.148;2023-12-20T10:54:31;1.13;;;0.57;;
11303;SDS011;5707;49.588;12.148;2023-12-20T10:56:58;2.25;;;1.00;;
11303;SDS011;5707;49.588;12.148;2023-12-20T10:59:24;4.05;;;1.10;;
11303;SDS011;5707;49.588;12.148;2023-12-20T11:01:52;1.80;;;0.68;;
11303;SDS011;5707;49.588;12.148;2023-12-20T11:04:25;3.50;;;0.80;;
11303;SDS011;5707;49.588;12.148;2023-12-20T11:10:16;1.40;;;0.70;;
11303;SDS011;5707;49.588;12.148;2023-12-20T11:12:54;0.52;;;0.50;;
11303;SDS011;5707;49.588;12.148;2023-12-20T11:15:26;1.17;;;0.98;;
11303;SDS011;5707;49.588;12.148;2023-12-20T11:17:55;1.85;;;0.70;;
11303;SDS011;5707;49.588;12.148;2023-12-20T11:20:23;1.73;;;0.60;;
11303;SDS011;5707;49.588;12.148;2023-12-20T11:22:59;0.55;;;0.55;;
11303;SDS011;5707;49.588;12.148;2023-12-20T11:25:25;7.35;;;1.83;;
11303;SDS011;5707;49.588;12.148;2023-12-20T11:28:07;1.88;;;0.70;;
11303;SDS011;5707;49.588;12.148;2023-12-20T11:30:45;3.58;;;0.90;;
11303;SDS011;5707;49.588;12.148;2023-12-20T11:33:13;3.33;;;1.15;;
11303;SDS011;5707;49.588;12.148;2023-12-20T11:35:39;3.90;;;0.95;;
11303;SDS011;5707;49.588;12.148;2023-12-20T11:38:09;1.85;;;1.17;;
11303;SDS011;5707;49.588;12.148;2023-12-20T11:40:35;1.77;;;0.70;;
11303;SDS011;5707;49.588;12.148;2023-12-20T11:43:02;2.70;;;1.27;;
11303;SDS011;5707;49.588;12.148;2023-12-20T11:45:28;2.67;;;1.10;;
11303;SDS011;5707;49.588;12.148;2023-12-20T11:47:54;0.93;;;0.63;;
11303;SDS011;5707;49.588;12.148;2023-12-20T11:50:22;2.38;;;0.93;;
11303;SDS011;5707;49.588;12.148;2023-12-20T11:52:48;1.63;;;0.80;;
11303;SDS011;5707;49.588;12.148;2023-12-20T11:55:15;2.10;;;1.00;;
11303;SDS011;5707;49.588;12.148;2023-12-20T11:57:41;3.55;;;0.80;;
11303;SDS011;5707;49.588;12.148;2023-12-20T12:00:08;3.28;;;1.40;;
11303;SDS011;5707;49.588;12.148;2023-12-20T12:02:33;3.65;;;2.13;;
11303;SDS011;5707;49.588;12.148;2023-12-20T12:04:59;1.50;;;1.10;;
11303;SDS011;5707;49.588;12.148;2023-12-20T12:07:25;3.63;;;1.23;;
11303;SDS011;5707;49.588;12.148;2023-12-20T12:09:50;1.10;;;0.65;;
11303;SDS011;5707;49.588;12.148;2023-12-20T12:12:16;4.00;;;3.00;;
11303;SDS011;5707;49.588;12.148;2023-12-20T12:14:44;4.25;;;2.67;;
11303;SDS011;5707;49.588;12.148;2023-12-20T12:17:13;3.05;;;1.17;;
11303;SDS011;5707;49.588;12.148;2023-12-20T12:19:40;1.77;;;1.42;;
11303;SDS011;5707;49.588;12.148;2023-12-20T12:24:44;1.92;;;1.58;;
11303;SDS011;5707;49.588;12.148;2023-12-20T12:27:11;2.85;;;1.50;;
11303;SDS011;5707;49.588;12.148;2023-12-20T12:29:38;2.78;;;1.48;;
11303;SDS011;5707;49.588;12.148;2023-12-20T12:32:04;3.08;;;1.50;;
11303;SDS011;5707;49.588;12.148;2023-12-20T12:34:32;1.92;;;1.35;;
11303;SDS011;5707;49.588;12.148;2023-12-20T12:36:57;8.90;;;1.80;;
11303;SDS011;5707;49.588;12.148;2023-12-20T12:39:23;8.88;;;2.28;;
11303;SDS011;5707;49.588;12.148;2023-12-20T12:41:53;3.67;;;1.60;;
11303;SDS011;5707;49.588;12.148;2023-12-20T12:44:19;5.53;;;1.55;;
11303;SDS011;5707;49.588;12.148;2023-12-20T12:46:47;2.08;;;1.05;;
11303;SDS011;5707;49.588;12.148;2023-12-20T12:49:16;6.22;;;1.60;;
11303;SDS011;5707;49.588;12.148;2023-12-20T12:51:41;4.22;;;1.40;;
11303;SDS011;5707;49.588;12.148;2023-12-20T12:54:08;3.15;;;1.42;;
11303;SDS011;5707;49.588;12.148;2023-12-20T12:56:34;2.33;;;1.35;;
11303;SDS011;5707;49.588;12.148;2023-12-20T12:59:00;1.50;;;1.10;;
11303;SDS011;5707;49.588;12.148;2023-12-20T13:01:26;1.70;;;0.98;;
11303;SDS011;5707;49.588;12.148;2023-12-20T13:03:52;3.67;;;0.88;;
11303;SDS011;5707;49.588;12.148;2023-12-20T13:06:17;2.20;;;1.20;;
11303;SDS011;5707;49.588;12.148;2023-12-20T13:08:43;4.60;;;1.38;;
11303;SDS011;5707;49.588;12.148;2023-12-20T13:11:09;2.78;;;1.55;;
11303;SDS011;5707;49.588;12.148;2023-12-20T13:13:35;7.47;;;3.88;;
11303;SDS011;5707;49.588;12.148;2023-12-20T13:16:00;3.38;;;1.88;;
11303;SDS011;5707;49.588;12.148;2023-12-20T13:18:26;4.32;;;1.20;;
11303;SDS011;5707;49.588;12.148;2023-12-20T13:20:51;2.65;;;1.70;;
11303;SDS011;5707;49.588;12.148;2023-12-20T13:23:17;4.20;;;1.10;;
11303;SDS011;5707;49.588;12.148;2023-12-20T13:25:43;2.83;;;1.30;;
11303;SDS011;5707;49.588;12.148;2023-12-20T13:28:10;2.80;;;1.50;;
11303;SDS011;5707;49.588;12.148;2023-12-20T13:30:36;1.92;;;0.70;;
11303;SDS011;5707;49.588;12.148;2023-12-20T13:33:02;2.30;;;1.15;;
11303;SDS011;5707;49.588;12.148;2023-12-20T13:35:27;1.30;;;1.20;;
11303;SDS011;5707;49.588;12.148;2023-12-20T13:37:53;1.20;;;0.70;;
11303;SDS011;5707;49.588;12.148;2023-12-20T13:40:18;1.48;;;0.63;;
11303;SDS011;5707;49.588;12.148;2023-12-20T13:42:44;3.25;;;1.33;;
11303;SDS011;5707;49.588;12.148;2023-12-20T13:45:10;2.15;;;1.20;;
11303;SDS011;5707;49.588;12.148;2023-12-20T13:47:36;2.03;;;1.15;;
11303;SDS011;5707;49.588;12.148;2023-12-20T13:50:02;5.07;;;1.92;;
11303;SDS011;5707;49.588;12.148;2023-12-20T13:52:29;1.83;;;1.30;;
11303;SDS011;5707;49.588;12.148;2023-12-20T13:54:54;2.70;;;1.13;;
11303;SDS011;5707;49.588;12.148;2023-12-20T13:57:20;5.10;;;1.13;;
11303;SDS011;5707;49.588;12.148;2023-12-20T13:59:45;8.15;;;2.00;;
11303;SDS011;5707;49.588;12.148;2023-12-20T14:02:11;2.85;;;1.10;;
11303;SDS011;5707;49.588;12.148;2023-12-20T14:04:37;4.07;;;1.55;;
11303;SDS011;5707;49.588;12.148;2023-12-20T14:07:04;1.67;;;1.20;;
11303;SDS011;5707;49.588;12.148;2023-12-20T14:09:30;4.53;;;1.25;;
11303;SDS011;5707;49.588;12.148;2023-12-20T14:11:55;2.85;;;1.00;;
11303;SDS011;5707;49.588;12.148;2023-12-20T14:14:21;1.50;;;1.10;;
11303;SDS011;5707;49.588;12.148;2023-12-20T14:16:46;3.33;;;1.20;;
11303;SDS011;5707;49.588;12.148;2023-12-20T14:19:12;2.35;;;0.70;;
11303;SDS011;5707;49.588;12.148;2023-12-20T14:21:37;1.38;;;1.00;;
11303;SDS011;5707;49.588;12.148;2023-12-20T14:24:03;1.67;;;1.05;;
11303;SDS011;5707;49.588;12.148;2023-12-20T14:26:29;4.45;;;1.10;;
11303;SDS011;5707;49.588;12.148;2023-12-20T14:28:55;2.22;;;0.70;;
11303;SDS011;5707;49.588;12.148;2023-12-20T14:31:21;1.35;;;0.90;;
11303;SDS011;5707;49.588;12.148;2023-12-20T14:33:49;1.23;;;0.80;;
11303;SDS011;5707;49.588;12.148;2023-12-20T14:36:15;2.17;;;1.10;;
11303;SDS011;5707;49.588;12.148;2023-12-20T14:38:42;3.70;;;2.10;;
11303;SDS011;5707;49.588;12.148;2023-12-20T14:41:08;3.45;;;2.40;;
11303;SDS011;5707;49.588;12.148;2023-12-20T14:43:34;2.88;;;2.03;;
11303;SDS011;5707;49.588;12.148;2023-12-20T14:45:59;3.20;;;1.63;;
11303;SDS011;5707;49.588;12.148;2023-12-20T14:48:25;2.28;;;1.60;;